createdAt,value
2023-04-14T00:02:14.122Z,11.73
2023-04-14T00:04:40.906Z,10.98
2023-04-14T00:07:07.618Z,9.77
2023-04-14T00:09:34.252Z,6.55
2023-04-14T00:12:01.663Z,11.93
2023-04-14T00:14:28.261Z,9.98
2023-04-14T00:16:54.973Z,7.50
2023-04-14T00:19:21.623Z,8.13
2023-04-14T00:21:48.262Z,9.75
2023-04-14T00:24:14.860Z,10.07
2023-04-14T00:26:41.471Z,7.63
2023-04-14T00:29:08.097Z,6.68
2023-04-14T00:31:34.813Z,9.30
2023-04-14T00:34:01.488Z,8.50
2023-04-14T00:36:28.133Z,7.70
2023-04-14T00:38:54.759Z,6.25
2023-04-14T00:41:21.760Z,8.73
2023-04-14T00:43:48.457Z,7.72
2023-04-14T00:46:15.137Z,6.50
2023-04-14T00:48:41.790Z,8.68
2023-04-14T00:51:08.934Z,7.63
2023-04-14T00:53:35.652Z,8.55
2023-04-14T00:56:02.317Z,7.65
2023-04-14T00:58:28.935Z,7.65
2023-04-14T01:00:55.808Z,9.13
2023-04-14T01:03:24.526Z,7.15
2023-04-14T01:05:51.429Z,7.25
2023-04-14T01:08:18.305Z,10.18
2023-04-14T01:11:07.917Z,11.57
2023-04-14T01:13:48.943Z,6.95
2023-04-14T01:16:22.952Z,11.43
2023-04-14T01:18:55.970Z,8.90
2023-04-14T01:21:31.567Z,7.95
2023-04-14T01:24:16.525Z,9.02
2023-04-14T01:26:43.502Z,8.68
2023-04-14T01:29:24.764Z,13.15
2023-04-14T01:31:55.290Z,9.02
2023-04-14T01:34:29.977Z,12.93
2023-04-14T01:37:06.577Z,11.10
2023-04-14T01:39:41.165Z,10.05
2023-04-14T01:42:10.509Z,8.82
2023-04-14T01:44:37.530Z,9.98
2023-04-14T01:47:05.836Z,11.13
2023-04-14T01:49:33.775Z,10.05
2023-04-14T01:52:01.814Z,10.70
2023-04-14T01:54:28.419Z,13.43
2023-04-14T01:56:55.043Z,12.82
2023-04-14T01:59:22.545Z,12.52
2023-04-14T02:01:50.428Z,9.32
2023-04-14T02:04:18.487Z,16.67
2023-04-14T02:06:45.197Z,11.68
2023-04-14T02:09:12.977Z,14.55
2023-04-14T02:11:39.732Z,11.88
2023-04-14T02:14:06.354Z,10.40
2023-04-14T02:16:33.781Z,14.02
2023-04-14T02:19:00.732Z,16.05
2023-04-14T02:21:28.476Z,13.43
2023-04-14T02:23:55.127Z,11.10
2023-04-14T02:26:22.430Z,15.85
2023-04-14T02:29:15.742Z,10.88
2023-04-14T02:31:55.560Z,11.88
2023-04-14T02:34:23.875Z,15.18
2023-04-14T02:36:55.335Z,18.75
2023-04-14T02:39:26.211Z,13.10
2023-04-14T02:41:56.895Z,13.30
2023-04-14T02:44:28.432Z,10.50
2023-04-14T02:47:04.202Z,12.63
2023-04-14T02:49:38.341Z,13.73
2023-04-14T02:52:06.373Z,16.85
2023-04-14T02:54:36.568Z,11.07
2023-04-14T02:57:03.744Z,9.43
2023-04-14T02:59:31.205Z,10.73
2023-04-14T03:02:02.145Z,11.75
2023-04-14T03:04:33.670Z,10.30
2023-04-14T03:07:01.107Z,10.00
2023-04-14T03:09:28.058Z,12.13
2023-04-14T03:11:55.322Z,12.18
2023-04-14T03:14:22.364Z,11.15
2023-04-14T03:16:53.486Z,23.02
2023-04-14T03:19:23.741Z,27.77
2023-04-14T03:21:50.980Z,18.10
2023-04-14T03:24:24.170Z,15.82
2023-04-14T03:26:58.763Z,14.65
2023-04-14T03:29:32.586Z,12.55
2023-04-14T03:32:00.366Z,13.52
2023-04-14T03:34:30.877Z,13.75
2023-04-14T03:36:57.590Z,16.42
2023-04-14T03:39:27.317Z,13.52
2023-04-14T03:41:57.146Z,14.73
2023-04-14T03:44:25.181Z,20.77
2023-04-14T03:46:54.391Z,17.42
2023-04-14T03:49:21.558Z,18.67
2023-04-14T03:51:51.250Z,17.55
2023-04-14T03:54:17.867Z,24.23
2023-04-14T03:56:46.236Z,15.68
2023-04-14T03:59:15.298Z,15.80
2023-04-14T04:01:41.966Z,13.35
2023-04-14T04:04:08.947Z,10.32
2023-04-14T04:06:37.123Z,38.40
2023-04-14T04:09:03.864Z,81.43
2023-04-14T04:11:30.612Z,136.52
2023-04-14T04:13:57.223Z,91.43
2023-04-14T04:16:24.695Z,165.13
2023-04-14T04:18:51.346Z,145.82
2023-04-14T04:21:18.318Z,154.38
2023-04-14T04:23:48.847Z,180.40
2023-04-14T04:26:15.473Z,47.70
2023-04-14T04:28:42.059Z,58.83
2023-04-14T04:31:09.898Z,63.33
2023-04-14T04:33:36.646Z,90.55
2023-04-14T04:36:04.577Z,128.57
2023-04-14T04:38:31.182Z,89.45
2023-04-14T04:40:57.879Z,12.88
2023-04-14T04:43:24.495Z,33.08
2023-04-14T04:46:09.301Z,31.63
2023-04-14T04:48:35.898Z,33.72
2023-04-14T04:51:02.538Z,19.27
2023-04-14T04:53:29.139Z,58.03
2023-04-14T04:55:56.380Z,25.38
2023-04-14T04:58:22.982Z,13.88
2023-04-14T05:00:49.634Z,16.17
2023-04-14T05:03:16.601Z,10.90
2023-04-14T05:05:43.220Z,8.50
2023-04-14T05:08:10.102Z,8.18
2023-04-14T05:10:37.673Z,11.93
2023-04-14T05:13:04.411Z,12.48
2023-04-14T05:15:31.926Z,11.13
2023-04-14T05:17:59.458Z,8.95
2023-04-14T05:20:26.328Z,13.13
2023-04-14T05:22:53.357Z,12.38
2023-04-14T05:25:19.984Z,13.73
2023-04-14T05:27:47.065Z,12.82
2023-04-14T05:30:13.864Z,9.95
2023-04-14T05:32:41.252Z,55.67
2023-04-14T05:35:11.124Z,16.75
2023-04-14T05:37:37.756Z,23.17
2023-04-14T05:40:04.925Z,52.30
2023-04-14T05:42:31.554Z,158.18
2023-04-14T05:44:58.200Z,47.55
2023-04-14T05:47:24.866Z,63.63
2023-04-14T05:49:51.493Z,36.30
2023-04-14T05:52:18.122Z,61.17
2023-04-14T05:54:44.760Z,130.40
2023-04-14T05:57:11.411Z,67.95
2023-04-14T05:59:38.007Z,67.13
2023-04-14T06:02:07.301Z,100.13
2023-04-14T06:04:34.356Z,10.73
2023-04-14T06:07:02.749Z,17.40
2023-04-14T06:09:29.437Z,21.00
2023-04-14T06:11:56.564Z,17.30
2023-04-14T06:14:23.252Z,23.85
2023-04-14T06:16:51.084Z,18.85
2023-04-14T06:19:18.712Z,16.25
2023-04-14T06:21:46.544Z,40.20
2023-04-14T06:24:13.181Z,85.53
2023-04-14T06:26:39.836Z,74.50
2023-04-14T06:29:07.603Z,52.10
2023-04-14T06:31:34.698Z,52.20
2023-04-14T06:34:01.435Z,128.68
2023-04-14T06:36:28.717Z,62.08
2023-04-14T06:38:56.966Z,100.85
2023-04-14T06:41:23.667Z,95.28
2023-04-14T06:43:51.333Z,35.65
2023-04-14T06:46:18.220Z,39.97
2023-04-14T06:48:44.853Z,58.60
2023-04-14T06:51:13.643Z,63.45
2023-04-14T06:53:40.313Z,17.33
2023-04-14T06:56:07.460Z,29.92
2023-04-14T06:58:34.169Z,49.15
2023-04-14T07:01:01.883Z,71.50
2023-04-14T07:03:29.515Z,31.50
2023-04-14T07:06:02.671Z,47.35
2023-04-14T07:08:32.721Z,26.48
2023-04-14T07:11:00.524Z,20.27
2023-04-14T07:13:27.304Z,17.25
2023-04-14T07:15:54.409Z,65.93
2023-04-14T07:18:21.185Z,23.17
2023-04-14T07:20:51.567Z,30.27
2023-04-14T07:23:18.220Z,70.63
2023-04-14T07:25:44.842Z,17.48
2023-04-14T07:28:11.905Z,16.42
2023-04-14T07:30:38.577Z,21.73
2023-04-14T07:33:05.341Z,22.17
2023-04-14T07:35:32.029Z,15.32
2023-04-14T07:37:58.660Z,17.65
2023-04-14T07:40:25.634Z,21.50
2023-04-14T07:42:52.305Z,19.50
2023-04-14T07:45:18.961Z,23.35
2023-04-14T07:47:45.657Z,15.35
2023-04-14T07:50:12.752Z,14.82
2023-04-14T07:52:39.362Z,19.45
2023-04-14T07:55:06.148Z,14.38
2023-04-14T07:57:34.206Z,15.05
2023-04-14T08:00:00.862Z,15.10
2023-04-14T08:02:27.621Z,13.77
2023-04-14T08:04:54.347Z,13.50
2023-04-14T08:07:20.969Z,14.73
2023-04-14T08:09:49.115Z,19.05
2023-04-14T08:12:16.150Z,16.75
2023-04-14T08:14:42.783Z,13.75
2023-04-14T08:17:09.398Z,13.25
2023-04-14T08:19:36.971Z,14.25
2023-04-14T08:22:03.630Z,15.93
2023-04-14T08:24:30.525Z,12.63
2023-04-14T08:26:57.577Z,14.13
2023-04-14T08:29:24.262Z,13.05
2023-04-14T08:31:50.993Z,14.52
2023-04-14T08:34:21.806Z,13.30
2023-04-14T08:36:56.449Z,27.02
2023-04-14T08:39:23.651Z,15.63
2023-04-14T08:41:50.395Z,13.23
2023-04-14T08:44:17.314Z,11.68
2023-04-14T08:46:44.090Z,14.65
2023-04-14T08:49:12.729Z,14.25
2023-04-14T08:51:39.885Z,14.73
2023-04-14T08:54:09.477Z,18.83
2023-04-14T08:56:42.532Z,13.13
2023-04-14T08:59:10.539Z,13.35
2023-04-14T09:01:37.979Z,16.45
2023-04-14T09:04:05.482Z,13.07
2023-04-14T09:06:33.161Z,18.60
2023-04-14T09:09:10.833Z,15.30
2023-04-14T09:11:37.771Z,14.48
2023-04-14T09:14:04.858Z,16.17
2023-04-14T09:16:32.353Z,13.93
2023-04-14T09:19:06.484Z,14.93
2023-04-14T09:21:53.958Z,19.38
2023-04-14T09:24:23.579Z,22.23
2023-04-14T09:26:50.784Z,13.98
2023-04-14T09:29:17.383Z,14.00
2023-04-14T09:31:44.807Z,16.88
2023-04-14T09:34:18.725Z,17.50
2023-04-14T09:37:07.927Z,17.35
2023-04-14T09:39:35.192Z,14.00
2023-04-14T09:42:02.727Z,13.52
2023-04-14T09:44:29.717Z,16.08
2023-04-14T09:47:05.450Z,11.23
2023-04-14T09:49:33.041Z,20.23
2023-04-14T09:52:05.585Z,14.07
2023-04-14T09:54:32.226Z,16.33
2023-04-14T09:56:58.868Z,13.90
2023-04-14T09:59:36.684Z,15.07
2023-04-14T10:02:07.872Z,10.75
2023-04-14T10:04:34.989Z,13.77
2023-04-14T10:07:01.859Z,16.05
2023-04-14T10:09:29.342Z,11.57
2023-04-14T10:12:14.947Z,14.40
2023-04-14T10:14:41.996Z,14.73
2023-04-14T10:17:09.015Z,15.40
2023-04-14T10:19:36.239Z,13.80
2023-04-14T10:22:04.704Z,13.60
2023-04-14T10:24:31.381Z,13.57
2023-04-14T10:26:58.029Z,13.35
2023-04-14T10:29:24.663Z,11.75
2023-04-14T10:31:57.565Z,9.18
2023-04-14T10:34:24.377Z,11.85
2023-04-14T10:36:51.048Z,13.45
2023-04-14T10:39:22.707Z,12.18
2023-04-14T10:41:50.446Z,8.27
2023-04-14T10:44:25.851Z,8.88
2023-04-14T10:46:54.111Z,8.73
2023-04-14T10:49:33.775Z,12.00
2023-04-14T10:52:04.908Z,15.23
2023-04-14T10:54:53.863Z,13.65
2023-04-14T10:57:27.230Z,10.65
2023-04-14T10:59:55.114Z,15.57
2023-04-14T11:02:23.883Z,11.23
2023-04-14T11:05:11.195Z,13.77
2023-04-14T11:07:44.571Z,11.45
2023-04-14T11:10:17.605Z,7.63
2023-04-14T11:12:44.787Z,8.87
2023-04-14T11:15:11.540Z,9.25
2023-04-14T11:17:41.733Z,9.75
2023-04-14T11:20:23.956Z,9.23
2023-04-14T11:22:52.591Z,10.00
2023-04-14T11:25:22.955Z,6.50
2023-04-14T11:27:51.821Z,11.05
2023-04-14T11:30:19.046Z,6.75
2023-04-14T11:32:51.361Z,8.35
2023-04-14T11:35:18.665Z,8.68
2023-04-14T11:37:46.112Z,10.02
2023-04-14T11:40:13.780Z,10.88
2023-04-14T11:42:47.123Z,6.90
2023-04-14T11:45:15.444Z,11.07
2023-04-14T11:48:00.132Z,7.50
2023-04-14T11:50:27.948Z,8.35
2023-04-14T11:52:55.341Z,9.18
2023-04-14T11:55:25.298Z,8.55
2023-04-14T11:57:52.065Z,8.95
2023-04-14T12:00:18.912Z,10.10
2023-04-14T12:02:45.833Z,9.20
2023-04-14T12:05:15.912Z,12.73
2023-04-14T12:07:43.005Z,5.95
2023-04-14T12:10:10.821Z,23.67
2023-04-14T12:12:37.916Z,21.05
2023-04-14T12:15:05.478Z,12.77
2023-04-14T12:17:32.154Z,13.15
2023-04-14T12:19:58.852Z,4.20
2023-04-14T12:22:29.504Z,7.57
2023-04-14T12:24:56.409Z,5.57
2023-04-14T12:27:23.694Z,7.40
2023-04-14T12:29:50.718Z,8.35
2023-04-14T12:32:22.160Z,6.85
2023-04-14T12:34:57.677Z,5.30
2023-04-14T12:37:26.490Z,10.88
2023-04-14T12:39:57.353Z,7.90
2023-04-14T12:42:27.760Z,4.28
2023-04-14T12:45:01.296Z,3.97
2023-04-14T12:47:29.094Z,5.65
2023-04-14T12:49:56.894Z,5.07
2023-04-14T12:52:37.058Z,6.03
2023-04-14T12:55:04.804Z,8.30
2023-04-14T12:57:32.582Z,9.52
2023-04-14T13:00:00.875Z,6.43
2023-04-14T13:02:30.911Z,6.05
2023-04-14T13:04:57.754Z,5.10
2023-04-14T13:07:24.421Z,7.15
2023-04-14T13:09:52.060Z,8.10
2023-04-14T13:12:18.753Z,7.88
2023-04-14T13:14:45.391Z,8.05
2023-04-14T13:17:12.066Z,9.15
2023-04-14T13:19:38.714Z,6.75
2023-04-14T13:22:05.479Z,5.95
2023-04-14T13:24:32.133Z,8.15
2023-04-14T13:26:58.767Z,3.13
2023-04-14T13:29:25.422Z,4.70
2023-04-14T13:31:52.090Z,8.43
2023-04-14T13:34:18.914Z,8.27
2023-04-14T13:36:45.845Z,8.65
2023-04-14T13:39:12.460Z,10.98
2023-04-14T13:41:39.129Z,9.88
2023-04-14T13:44:05.864Z,6.18
2023-04-14T13:46:40.611Z,6.25
2023-04-14T13:49:08.033Z,10.90
2023-04-14T13:51:34.661Z,5.57
2023-04-14T13:54:01.453Z,8.75
2023-04-14T13:56:28.122Z,6.32
2023-04-14T13:58:54.745Z,9.20
2023-04-14T14:01:21.380Z,6.32
2023-04-14T14:03:51.817Z,5.88
2023-04-14T14:06:21.381Z,7.82
2023-04-14T14:09:01.348Z,4.28
2023-04-14T14:11:29.411Z,7.47
2023-04-14T14:13:55.998Z,5.53
2023-04-14T14:16:35.932Z,7.18
2023-04-14T14:19:05.295Z,6.10
2023-04-14T14:21:32.188Z,7.45
2023-04-14T14:23:59.497Z,5.30
2023-04-14T14:26:26.350Z,5.63
2023-04-14T14:28:52.947Z,7.65
2023-04-14T14:31:19.588Z,5.63
2023-04-14T14:33:46.495Z,6.85
2023-04-14T14:36:15.067Z,8.30
2023-04-14T14:38:41.713Z,8.70
2023-04-14T14:41:08.339Z,6.45
2023-04-14T14:43:35.088Z,7.38
2023-04-14T14:46:02.120Z,7.82
2023-04-14T14:48:28.899Z,5.55
2023-04-14T14:50:55.688Z,6.32
2023-04-14T14:53:22.285Z,6.57
2023-04-14T14:55:48.904Z,9.32
2023-04-14T14:58:15.677Z,13.60
2023-04-14T15:00:42.290Z,8.32
2023-04-14T15:03:09.555Z,4.28
2023-04-14T15:05:36.348Z,5.50
2023-04-14T15:08:03.346Z,6.20
2023-04-14T15:10:30.302Z,4.22
2023-04-14T15:12:57.526Z,13.90
2023-04-14T15:15:24.188Z,12.95
2023-04-14T15:17:51.116Z,13.25
2023-04-14T15:20:18.091Z,16.38
2023-04-14T15:22:44.719Z,27.80
2023-04-14T15:25:11.586Z,17.65
2023-04-14T15:27:38.233Z,6.88
2023-04-14T15:30:05.418Z,6.10
2023-04-14T15:32:32.300Z,10.45
2023-04-14T15:34:59.072Z,12.70
2023-04-14T15:37:26.373Z,7.03
2023-04-14T15:39:53.101Z,8.00
2023-04-14T15:42:19.792Z,6.28
2023-04-14T15:44:46.518Z,6.20
2023-04-14T15:47:13.125Z,5.72
2023-04-14T15:49:39.742Z,6.13
2023-04-14T15:52:06.784Z,7.68
2023-04-14T15:54:33.872Z,7.53
2023-04-14T15:57:01.418Z,5.60
2023-04-14T15:59:28.781Z,10.02
2023-04-14T16:01:56.126Z,4.28
2023-04-14T16:04:23.817Z,7.35
2023-04-14T16:06:51.211Z,7.75
2023-04-14T16:09:17.827Z,7.60
2023-04-14T16:11:44.500Z,6.57
2023-04-14T16:14:11.117Z,7.10
2023-04-14T16:16:38.483Z,9.90
2023-04-14T16:19:05.342Z,6.93
2023-04-14T16:21:31.955Z,7.97
2023-04-14T16:23:58.649Z,6.28
2023-04-14T16:26:25.673Z,8.10
2023-04-14T16:28:52.602Z,5.22
2023-04-14T16:31:19.252Z,8.50
2023-04-14T16:33:46.028Z,5.65
2023-04-14T16:36:12.804Z,7.82
2023-04-14T16:38:39.436Z,6.68
2023-04-14T16:41:06.050Z,6.25
2023-04-14T16:43:32.843Z,5.22
2023-04-14T16:46:03.637Z,4.95
2023-04-14T16:48:30.725Z,6.85
2023-04-14T16:50:57.473Z,4.07
2023-04-14T16:53:24.156Z,4.88
2023-04-14T16:55:50.986Z,6.30
2023-04-14T16:58:17.755Z,2.50
2023-04-14T17:00:44.433Z,5.20
2023-04-14T17:03:14.260Z,3.17
2023-04-14T17:05:40.970Z,2.03
2023-04-14T17:08:07.938Z,6.25
2023-04-14T17:10:34.535Z,5.40
2023-04-14T17:13:01.187Z,8.18
2023-04-14T17:15:28.395Z,8.57
2023-04-14T17:17:55.312Z,7.70
2023-04-14T17:20:21.980Z,9.43
2023-04-14T17:22:49.714Z,5.55
2023-04-14T17:25:17.154Z,8.40
2023-04-14T17:27:44.052Z,11.15
2023-04-14T17:30:11.613Z,7.45
2023-04-14T17:32:39.069Z,10.82
2023-04-14T17:35:06.234Z,9.32
2023-04-14T17:37:33.070Z,7.72
2023-04-14T17:39:59.702Z,9.75
2023-04-14T17:42:27.194Z,9.77
2023-04-14T17:44:54.115Z,13.82
2023-04-14T17:47:30.042Z,8.23
2023-04-14T17:49:56.730Z,8.05
2023-04-14T17:52:24.195Z,6.80
2023-04-14T17:54:53.391Z,5.70
2023-04-14T17:57:20.884Z,9.45
2023-04-14T17:59:47.594Z,10.77
2023-04-14T18:02:15.774Z,7.05
2023-04-14T18:04:42.606Z,8.90
2023-04-14T18:07:09.247Z,8.38
2023-04-14T18:09:35.867Z,11.45
2023-04-14T18:12:02.805Z,9.82
2023-04-14T18:14:29.906Z,12.55
2023-04-14T18:16:57.271Z,11.20
2023-04-14T18:19:24.353Z,13.45
2023-04-14T18:21:51.186Z,12.75
2023-04-14T18:26:47.460Z,22.55
2023-04-14T18:29:14.077Z,12.75
2023-04-14T18:31:40.728Z,11.73
2023-04-14T18:34:09.286Z,11.30
2023-04-14T18:36:36.401Z,12.60
2023-04-14T18:39:03.145Z,12.43
2023-04-14T18:41:29.897Z,13.77
2023-04-14T18:43:56.575Z,10.55
2023-04-14T18:46:23.461Z,12.73
2023-04-14T18:48:50.134Z,12.27
2023-04-14T18:51:16.806Z,13.95
2023-04-14T18:53:45.237Z,13.05
2023-04-14T18:56:12.609Z,12.18
2023-04-14T18:58:39.985Z,14.63
2023-04-14T19:01:07.064Z,14.63
2023-04-14T19:03:33.772Z,13.05
2023-04-14T19:06:00.463Z,17.30
2023-04-14T19:08:27.247Z,12.77
2023-04-14T19:10:54.063Z,12.20
2023-04-14T19:13:20.826Z,10.57
2023-04-14T19:15:47.487Z,25.73
2023-04-14T19:18:15.052Z,19.92
2023-04-14T19:20:42.344Z,18.67
2023-04-14T19:23:09.977Z,19.02
2023-04-14T19:25:38.603Z,13.90
2023-04-14T19:28:06.655Z,12.85
2023-04-14T19:30:33.579Z,8.65
2023-04-14T19:33:00.390Z,10.93
2023-04-14T19:35:27.604Z,11.57
2023-04-14T19:37:56.558Z,9.60
2023-04-14T19:40:23.198Z,7.47
2023-04-14T19:42:49.814Z,7.72
2023-04-14T19:45:16.533Z,8.38
2023-04-14T19:47:43.681Z,11.70
2023-04-14T19:50:10.485Z,9.73
2023-04-14T19:52:38.425Z,9.60
2023-04-14T19:55:05.684Z,18.25
2023-04-14T19:57:32.314Z,11.32
2023-04-14T19:59:59.188Z,8.20
2023-04-14T20:02:30.171Z,13.93
2023-04-14T20:04:57.069Z,10.43
2023-04-14T20:07:23.714Z,10.75
2023-04-14T20:09:50.597Z,9.68
2023-04-14T20:12:17.419Z,12.90
2023-04-14T20:14:44.845Z,9.90
2023-04-14T20:17:12.446Z,11.93
2023-04-14T20:19:39.269Z,10.95
2023-04-14T20:22:06.428Z,10.05
2023-04-14T20:24:33.133Z,9.10
2023-04-14T20:27:00.252Z,10.93
2023-04-14T20:29:28.019Z,12.30
2023-04-14T20:31:54.645Z,12.57
2023-04-14T20:34:21.242Z,26.90
2023-04-14T20:36:48.977Z,13.25
2023-04-14T20:39:15.577Z,10.77
2023-04-14T20:41:42.175Z,9.13
2023-04-14T20:44:09.523Z,13.00
2023-04-14T20:46:36.488Z,10.10
2023-04-14T20:49:03.427Z,11.93
2023-04-14T20:51:32.126Z,11.18
2023-04-14T20:53:58.731Z,15.07
2023-04-14T20:56:28.401Z,13.20
2023-04-14T20:58:56.024Z,11.55
2023-04-14T21:01:25.389Z,10.38
2023-04-14T21:03:52.136Z,10.52
2023-04-14T21:06:18.820Z,9.75
2023-04-14T21:08:45.464Z,10.07
2023-04-14T21:11:16.697Z,8.80
2023-04-14T21:15:29.377Z,12.40
2023-04-14T21:16:32.820Z,10.45
2023-04-14T21:18:59.484Z,12.75
2023-04-14T21:21:26.986Z,12.38
2023-04-14T21:23:53.595Z,15.13
2023-04-14T21:26:20.237Z,10.00
2023-04-14T21:28:46.867Z,11.00
2023-04-14T21:31:13.504Z,12.98
2023-04-14T21:33:41.601Z,16.08
2023-04-14T21:36:09.681Z,9.50
2023-04-14T21:38:37.015Z,9.07
2023-04-14T21:41:03.614Z,10.27
2023-04-14T21:43:30.215Z,9.05
2023-04-14T21:45:56.977Z,10.52
2023-04-14T21:48:23.982Z,9.65
2023-04-14T21:50:50.582Z,10.48
2023-04-14T21:53:17.356Z,10.13
2023-04-14T21:55:43.940Z,9.20
2023-04-14T21:58:10.722Z,12.60
2023-04-14T22:00:37.358Z,12.02
2023-04-14T22:03:04.348Z,12.45
2023-04-14T22:05:31.128Z,14.05
2023-04-14T22:07:57.744Z,10.88
2023-04-14T22:10:31.538Z,9.20
2023-04-14T22:12:59.637Z,11.20
2023-04-14T22:15:26.692Z,11.40
2023-04-14T22:17:53.588Z,10.65
2023-04-14T22:20:20.273Z,10.43
2023-04-14T22:22:46.882Z,9.30
2023-04-14T22:25:13.502Z,8.65
2023-04-14T22:27:40.109Z,9.10
2023-04-14T22:30:07.356Z,11.60
2023-04-14T22:32:34.069Z,13.57
2023-04-14T22:35:00.672Z,9.52
2023-04-14T22:37:27.399Z,11.20
2023-04-14T22:39:53.988Z,8.02
2023-04-14T22:42:21.055Z,13.65
2023-04-14T22:44:49.340Z,11.02
2023-04-14T22:47:16.109Z,11.82
2023-04-14T22:49:42.711Z,9.98
2023-04-14T22:52:09.326Z,9.48
2023-04-14T22:54:36.379Z,9.77
2023-04-14T22:57:02.984Z,9.18
2023-04-14T22:59:29.583Z,9.60
2023-04-14T23:01:56.614Z,7.95
2023-04-14T23:04:25.186Z,11.32
2023-04-14T23:06:51.973Z,10.18
2023-04-14T23:09:18.566Z,13.38
2023-04-14T23:11:45.303Z,10.25
2023-04-14T23:14:12.197Z,12.88
2023-04-14T23:16:38.818Z,15.00
2023-04-14T23:19:05.900Z,9.63
2023-04-14T23:21:32.521Z,11.82
2023-04-14T23:23:59.134Z,9.45
2023-04-14T23:26:25.819Z,9.60
2023-04-14T23:28:52.918Z,11.13
2023-04-14T23:31:19.657Z,14.63
2023-04-14T23:33:48.556Z,11.40
2023-04-14T23:36:15.381Z,10.68
2023-04-14T23:38:42.189Z,9.98
2023-04-14T23:41:08.801Z,11.90
2023-04-14T23:43:35.420Z,11.52
2023-04-14T23:46:02.039Z,12.90
2023-04-14T23:48:28.621Z,13.35
2023-04-14T23:51:02.888Z,10.00
2023-04-14T23:53:42.630Z,13.30
2023-04-14T23:56:09.231Z,19.17
2023-04-14T23:58:35.827Z,14.13
